DNMM/LOS METAR and TAF weather

Enter ICAO airport designator
Station Type Date Time Source
DNMM METAR 2022/06/27 18:00 UTC NOAA

DNMM 271800Z 17004KT 9999 SCT012 FEW020CB 28/25 Q1013 TEMPO TS


Station Type Date Time Source
DNMM Decoded METAR 2022/06/27 18:00 UTC NOAA

Lagos / Ikeja, Nigeria (DNMM) 06-35N 003-20E 38M
Jun 27, 2022 - 02:00 PM EDT / 2022.06.27 1800 UTC
Wind: from the S (170 degrees) at 5 MPH (4 KT):0
Visibility: greater than 7 mile(s):0
Sky conditions: partly cloudy
Weather: Cumulonimbus clouds observed
Temperature: 82 F (28 C)
Dew Point: 77 F (25 C)
Relative Humidity: 83%
Pressure (altimeter): 29.91 in. Hg (1013 hPa)
ob: DNMM 271800Z 17004KT 9999 SCT012 FEW020CB 28/25 Q1013 TEMPO TS
cycle: 18

Station Type Date Time Source
DNMM TAF 2022/06/27 18:18 UTC NOAA

TAF TAF DNMM 271700Z 2718/2824 VRB02KT 9999 SCT011
TEMPO 2718/2723 TS SCT011 FEW020CB PROB30 2719/2722 20010KT 5000 -TSRA BKN008 FEW018CB
BECMG 2808/2810 22010KT BKN013 FEW020CB
TEMPO 2811/2816 TS
BECMG 2817/2819 VRB02KT SCTT011

Example: see airport list